Time;durP1;ratioP1;P1;durP2;ratioP2;P2;SDS_P1;SDS_P2;PMS_P1;PMS_P2;Temp;Humidity;BMP_temperature;BMP_pressure;BME280_temperature;BME280_humidity;BME280_pressure;Samples;Min_cycle;Max_cycle;Signal;HPM_P1;HPM_P2
2024/04/14 00:00:27;;;;;;;0.45;0.20;;;;;;;;;;5339039;26;20033;-77
2024/04/14 00:02:58;;;;;;;1.08;0.30;;;;;;;;;;5338691;26;20374;-77
2024/04/14 00:05:28;;;;;;;1.35;0.30;;;;;;;;;;5338433;26;20033;-78
2024/04/14 00:07:59;;;;;;;0.40;0.30;;;;;;;;;;5338423;26;20032;-77
2024/04/14 00:10:29;;;;;;;3.65;0.35;;;;;;;;;;5338628;26;20029;-77
2024/04/14 00:13:00;;;;;;;1.08;0.20;;;;;;;;;;5338830;26;20033;-77
2024/04/14 00:15:31;;;;;;;1.20;0.60;;;;;;;;;;5338034;26;20026;-78
2024/04/14 00:18:01;;;;;;;0.20;0.15;;;;;;;;;;5337892;26;20021;-78
2024/04/14 00:20:35;;;;;;;1.15;0.40;;;;;;;;;;5336775;26;20021;-78
2024/04/14 00:23:05;;;;;;;2.45;0.28;;;;;;;;;;5336323;26;20023;-78
2024/04/14 00:25:35;;;;;;;1.75;0.30;;;;;;;;;;5336403;26;20029;-77
2024/04/14 00:28:06;;;;;;;2.38;0.30;;;;;;;;;;5338012;26;20025;-78
2024/04/14 00:30:37;;;;;;;0.30;0.20;;;;;;;;;;5335592;26;20033;-78
2024/04/14 00:33:08;;;;;;;2.97;0.32;;;;;;;;;;5337746;26;20021;-78
2024/04/14 00:35:38;;;;;;;0.65;0.20;;;;;;;;;;5337795;26;20007;-78
2024/04/14 00:38:09;;;;;;;0.38;0.20;;;;;;;;;;5336364;26;20472;-78
2024/04/14 00:40:39;;;;;;;0.75;0.15;;;;;;;;;;5338000;26;20368;-77
2024/04/14 00:43:14;;;;;;;3.90;0.20;;;;;;;;;;5338152;26;20045;-78
2024/04/14 00:45:45;;;;;;;0.77;0.20;;;;;;;;;;5335363;26;20036;-78
2024/04/14 00:48:15;;;;;;;0.40;0.22;;;;;;;;;;5338033;26;20021;-78
2024/04/14 00:50:48;;;;;;;0.10;0.10;;;;;;;;;;5337865;26;20025;-78
2024/04/14 00:53:21;;;;;;;0.43;0.10;;;;;;;;;;5338287;26;20028;-78
2024/04/14 00:55:52;;;;;;;0.57;0.13;;;;;;;;;;5336827;26;20025;-78
2024/04/14 00:58:22;;;;;;;0.73;0.13;;;;;;;;;;5335791;26;20025;-76
2024/04/14 01:00:54;;;;;;;0.25;0.10;;;;;;;;;;5338190;26;20024;-78
2024/04/14 01:03:24;;;;;;;0.65;0.15;;;;;;;;;;5336861;26;20007;-77
2024/04/14 01:05:56;;;;;;;3.00;0.30;;;;;;;;;;5335011;26;20021;-78
2024/04/14 01:08:30;;;;;;;0.73;0.10;;;;;;;;;;5336878;26;20734;-78
2024/04/14 01:11:00;;;;;;;1.55;0.22;;;;;;;;;;5336596;26;20653;-78
2024/04/14 01:13:31;;;;;;;4.53;0.20;;;;;;;;;;5336830;26;20025;-77
2024/04/14 01:16:01;;;;;;;0.20;0.10;;;;;;;;;;5334233;26;20491;-78
2024/04/14 01:18:31;;;;;;;0.55;0.10;;;;;;;;;;5335517;26;20548;-78
2024/04/14 01:21:03;;;;;;;0.45;0.13;;;;;;;;;;5336645;26;20021;-77
2024/04/14 01:23:34;;;;;;;1.30;0.10;;;;;;;;;;5336362;26;20025;-78
2024/04/14 01:26:05;;;;;;;0.75;0.30;;;;;;;;;;5336903;26;20491;-77
2024/04/14 01:28:35;;;;;;;0.38;0.13;;;;;;;;;;5337430;26;20029;-78
2024/04/14 01:31:06;;;;;;;1.55;0.10;;;;;;;;;;5336370;26;20044;-78
2024/04/14 01:33:37;;;;;;;1.20;0.00;;;;;;;;;;5336679;26;20476;-77
2024/04/14 01:36:08;;;;;;;1.17;0.20;;;;;;;;;;5336473;26;20052;-78
2024/04/14 01:38:39;;;;;;;0.30;0.15;;;;;;;;;;5334938;26;20484;-78
2024/04/14 01:41:10;;;;;;;1.60;0.10;;;;;;;;;;5337091;26;20025;-78
2024/04/14 01:43:41;;;;;;;0.10;0.10;;;;;;;;;;5336451;26;20025;-78
2024/04/14 01:46:11;;;;;;;1.33;0.15;;;;;;;;;;5336332;26;20460;-79
2024/04/14 01:48:41;;;;;;;0.15;0.10;;;;;;;;;;5336358;26;20025;-78
2024/04/14 01:51:13;;;;;;;0.65;0.20;;;;;;;;;;5336615;26;20004;-77
2024/04/14 01:53:44;;;;;;;0.35;0.10;;;;;;;;;;5335940;26;20025;-77
2024/04/14 01:56:15;;;;;;;1.60;0.20;;;;;;;;;;5334559;26;20025;-80
2024/04/14 01:58:46;;;;;;;1.92;0.10;;;;;;;;;;5336295;26;20025;-78
2024/04/14 02:01:17;;;;;;;0.80;0.10;;;;;;;;;;5336140;26;20488;-76
2024/04/14 02:03:48;;;;;;;0.13;0.10;;;;;;;;;;5334295;26;20025;-78
2024/04/14 02:06:18;;;;;;;0.60;0.20;;;;;;;;;;5333551;26;20830;-78
2024/04/14 02:08:52;;;;;;;2.95;0.20;;;;;;;;;;5332413;26;20021;-78
2024/04/14 02:11:22;;;;;;;2.13;0.20;;;;;;;;;;5335591;26;20040;-78
2024/04/14 02:13:54;;;;;;;0.52;0.10;;;;;;;;;;5336295;26;20032;-78
2024/04/14 02:16:25;;;;;;;0.20;0.10;;;;;;;;;;5335775;26;20033;-78
2024/04/14 02:18:55;;;;;;;0.13;0.10;;;;;;;;;;5336488;26;20478;-76
2024/04/14 02:21:26;;;;;;;0.22;0.15;;;;;;;;;;5336857;26;20032;-77
2024/04/14 02:23:58;;;;;;;0.43;0.20;;;;;;;;;;5335855;26;20363;-77
2024/04/14 02:26:29;;;;;;;0.32;0.10;;;;;;;;;;5335955;26;20561;-77
2024/04/14 02:28:59;;;;;;;0.32;0.30;;;;;;;;;;5336117;26;20021;-82
2024/04/14 02:31:29;;;;;;;0.20;0.20;;;;;;;;;;5335988;26;20021;-78
2024/04/14 02:34:00;;;;;;;0.30;0.30;;;;;;;;;;5336501;26;20037;-76
2024/04/14 02:36:31;;;;;;;0.20;0.20;;;;;;;;;;5336342;26;20033;-77
2024/04/14 02:39:03;;;;;;;0.30;0.30;;;;;;;;;;5335038;26;20084;-77
2024/04/14 02:41:33;;;;;;;2.30;0.40;;;;;;;;;;5335918;26;20025;-77
2024/04/14 02:44:05;;;;;;;1.35;0.40;;;;;;;;;;5336063;26;20020;-75
2024/04/14 02:46:36;;;;;;;2.85;0.50;;;;;;;;;;5334907;26;20025;-75
2024/04/14 02:49:07;;;;;;;2.08;0.20;;;;;;;;;;5335907;26;20041;-75
2024/04/14 02:51:37;;;;;;;4.55;0.30;;;;;;;;;;5335899;26;20028;-76
2024/04/14 02:54:08;;;;;;;3.92;0.30;;;;;;;;;;5335373;26;20021;-76
2024/04/14 02:56:40;;;;;;;0.45;0.20;;;;;;;;;;5335181;26;20476;-76
2024/04/14 02:59:11;;;;;;;3.50;0.30;;;;;;;;;;5335785;26;20025;-76
2024/04/14 03:01:42;;;;;;;1.17;0.13;;;;;;;;;;5335985;26;20021;-75
2024/04/14 03:04:13;;;;;;;0.20;0.20;;;;;;;;;;5334441;26;20471;-76
2024/04/14 03:06:44;;;;;;;0.10;0.10;;;;;;;;;;5336771;26;20026;-76
2024/04/14 03:09:16;;;;;;;0.75;0.15;;;;;;;;;;5334197;26;20037;-76
2024/04/14 03:11:46;;;;;;;2.13;0.20;;;;;;;;;;5335282;26;20099;-75
2024/04/14 03:14:17;;;;;;;1.55;0.38;;;;;;;;;;5335781;26;20110;-75
2024/04/14 03:16:49;;;;;;;0.52;0.20;;;;;;;;;;5339482;26;20130;-73
2024/04/14 03:19:21;;;;;;;0.10;0.10;;;;;;;;;;5335501;26;20033;-77
2024/04/14 03:21:51;;;;;;;0.75;0.22;;;;;;;;;;5337189;26;20028;-76
2024/04/14 03:24:22;;;;;;;0.47;0.20;;;;;;;;;;5338262;26;20460;-75
2024/04/14 03:26:58;;;;;;;0.22;0.22;;;;;;;;;;5338966;26;20026;-75
2024/04/14 03:29:28;;;;;;;4.22;0.35;;;;;;;;;;5338262;26;20021;-75
2024/04/14 03:31:58;;;;;;;0.63;0.20;;;;;;;;;;5337850;26;20033;-76
2024/04/14 03:34:29;;;;;;;0.75;0.30;;;;;;;;;;5338885;26;20029;-75
2024/04/14 03:37:00;;;;;;;0.20;0.20;;;;;;;;;;5338469;26;20025;-76
2024/04/14 03:39:33;;;;;;;1.55;0.10;;;;;;;;;;5338362;26;20480;-75
2024/04/14 03:42:04;;;;;;;1.08;0.20;;;;;;;;;;5338579;26;20025;-76
2024/04/14 03:44:34;;;;;;;0.00;0.00;;;;;;;;;;5336623;26;20025;-75
2024/04/14 03:47:05;;;;;;;0.22;0.17;;;;;;;;;;5337436;26;20468;-75
2024/04/14 03:49:36;;;;;;;0.15;0.10;;;;;;;;;;5338290;26;20034;-75
2024/04/14 03:52:06;;;;;;;0.00;0.00;;;;;;;;;;5338909;26;20033;-76
2024/04/14 03:54:38;;;;;;;0.10;0.10;;;;;;;;;;5338061;26;20449;-75
2024/04/14 03:57:09;;;;;;;0.10;0.10;;;;;;;;;;5338354;26;20025;-75
2024/04/14 03:59:43;;;;;;;4.13;0.20;;;;;;;;;;5336822;26;20029;-75
2024/04/14 04:02:14;;;;;;;0.10;0.10;;;;;;;;;;5337933;26;20029;-76
2024/04/14 04:04:43;;;;;;;4.10;0.20;;;;;;;;;;5335417;26;20001;-76
2024/04/14 04:07:16;;;;;;;0.93;0.20;;;;;;;;;;5337584;26;20370;-76
2024/04/14 04:09:47;;;;;;;0.05;0.05;;;;;;;;;;5337501;26;20021;-76
2024/04/14 04:12:19;;;;;;;1.77;0.13;;;;;;;;;;5338726;26;20716;-76
2024/04/14 04:14:52;;;;;;;3.60;0.30;;;;;;;;;;5337402;26;20037;-76
2024/04/14 04:17:22;;;;;;;0.20;0.00;;;;;;;;;;5337125;26;20029;-75
2024/04/14 04:19:54;;;;;;;0.30;0.10;;;;;;;;;;5337900;26;20048;-75
2024/04/14 04:22:25;;;;;;;1.38;0.17;;;;;;;;;;5337688;26;20033;-75
2024/04/14 04:24:55;;;;;;;1.17;0.20;;;;;;;;;;5337534;26;20033;-75
2024/04/14 04:27:26;;;;;;;2.08;0.10;;;;;;;;;;5336520;26;20021;-75
2024/04/14 04:29:57;;;;;;;0.17;0.10;;;;;;;;;;5338059;26;20033;-75
2024/04/14 04:32:28;;;;;;;1.77;0.30;;;;;;;;;;5337149;26;20375;-75
2024/04/14 04:34:58;;;;;;;0.45;0.10;;;;;;;;;;5337614;26;20033;-76
2024/04/14 04:37:29;;;;;;;1.02;0.10;;;;;;;;;;5337443;26;20021;-76
2024/04/14 04:40:00;;;;;;;0.30;0.13;;;;;;;;;;5337565;26;20052;-76
2024/04/14 04:42:30;;;;;;;5.18;0.22;;;;;;;;;;5337361;26;20482;-76
2024/04/14 04:45:00;;;;;;;1.02;0.10;;;;;;;;;;5337324;26;20041;-75
2024/04/14 04:47:31;;;;;;;1.77;0.03;;;;;;;;;;5337304;26;20469;-76
2024/04/14 04:50:03;;;;;;;1.17;0.10;;;;;;;;;;5337090;26;20021;-75
2024/04/14 04:52:33;;;;;;;0.98;0.20;;;;;;;;;;5336965;26;20106;-76
2024/04/14 04:55:05;;;;;;;0.03;0.03;;;;;;;;;;5336835;26;20032;-75
2024/04/14 04:57:35;;;;;;;0.03;0.00;;;;;;;;;;5336713;26;20021;-76
2024/04/14 05:00:06;;;;;;;1.65;0.20;;;;;;;;;;5337119;26;20020;-75
2024/04/14 05:02:38;;;;;;;3.17;0.05;;;;;;;;;;5337477;26;20387;-75
2024/04/14 05:05:08;;;;;;;0.10;0.10;;;;;;;;;;5337210;26;20373;-75
2024/04/14 05:07:38;;;;;;;2.72;0.20;;;;;;;;;;5307780;26;20038;-76
2024/04/14 05:10:09;;;;;;;3.53;0.10;;;;;;;;;;5336539;26;20029;-76
2024/04/14 05:12:41;;;;;;;0.10;0.10;;;;;;;;;;5337264;26;20025;-75
2024/04/14 05:15:12;;;;;;;2.92;0.20;;;;;;;;;;5337371;26;20029;-75
2024/04/14 05:17:43;;;;;;;0.38;0.10;;;;;;;;;;5338098;26;20546;-75
2024/04/14 05:20:13;;;;;;;0.45;0.10;;;;;;;;;;5336687;26;20025;-76
2024/04/14 05:22:43;;;;;;;0.95;0.10;;;;;;;;;;5335982;26;20031;-74
2024/04/14 05:25:14;;;;;;;2.90;0.10;;;;;;;;;;5336666;26;20033;-76
2024/04/14 05:27:44;;;;;;;0.95;0.35;;;;;;;;;;5336173;26;20029;-75
2024/04/14 05:30:14;;;;;;;0.52;0.10;;;;;;;;;;5336398;26;20040;-76
2024/04/14 05:32:45;;;;;;;0.20;0.20;;;;;;;;;;5337471;26;20480;-76
2024/04/14 05:35:16;;;;;;;9.00;0.57;;;;;;;;;;5336535;26;20110;-75
2024/04/14 05:37:46;;;;;;;4.47;0.30;;;;;;;;;;5336463;26;20024;-75
2024/04/14 05:40:18;;;;;;;5.22;0.20;;;;;;;;;;5336284;26;20029;-76
2024/04/14 05:42:48;;;;;;;0.15;0.05;;;;;;;;;;5336159;26;20041;-75
2024/04/14 05:45:25;;;;;;;11.13;0.30;;;;;;;;;;5335959;26;20029;-75
2024/04/14 05:47:56;;;;;;;0.88;0.20;;;;;;;;;;5336917;26;20029;-74
2024/04/14 05:50:26;;;;;;;4.63;0.22;;;;;;;;;;5336515;26;20036;-75
2024/04/14 05:52:56;;;;;;;2.63;0.10;;;;;;;;;;5336626;26;20484;-77
2024/04/14 05:55:27;;;;;;;2.78;0.10;;;;;;;;;;5336206;26;20034;-75
2024/04/14 05:57:58;;;;;;;4.47;0.30;;;;;;;;;;5336019;26;20024;-75
2024/04/14 06:00:30;;;;;;;0.63;0.10;;;;;;;;;;5336477;26;20025;-75
2024/04/14 06:03:00;;;;;;;1.17;0.20;;;;;;;;;;5336459;26;20021;-75
2024/04/14 06:05:31;;;;;;;2.72;0.20;;;;;;;;;;5337349;26;20024;-74
2024/04/14 06:08:04;;;;;;;3.42;0.17;;;;;;;;;;5336200;26;20737;-75
2024/04/14 06:10:35;;;;;;;4.35;0.30;;;;;;;;;;5336058;26;20021;-75
2024/04/14 06:13:06;;;;;;;2.22;0.17;;;;;;;;;;5336620;26;20469;-76
2024/04/14 06:15:36;;;;;;;4.45;0.30;;;;;;;;;;5336136;26;20024;-76
2024/04/14 06:18:07;;;;;;;1.35;0.20;;;;;;;;;;5334568;26;20045;-75
2024/04/14 06:20:41;;;;;;;0.98;0.35;;;;;;;;;;5334154;26;20036;-75
2024/04/14 06:23:15;;;;;;;2.75;0.20;;;;;;;;;;5335734;26;20444;-74
2024/04/14 06:25:49;;;;;;;4.43;0.73;;;;;;;;;;5335822;26;20484;-76
2024/04/14 06:28:19;;;;;;;0.52;0.30;;;;;;;;;;5336016;26;20031;-75
2024/04/14 06:30:50;;;;;;;5.15;0.30;;;;;;;;;;5335934;26;20020;-76
2024/04/14 06:33:20;;;;;;;2.95;0.20;;;;;;;;;;5334095;26;19997;-75
2024/04/14 06:35:52;;;;;;;1.20;0.20;;;;;;;;;;5335443;26;20021;-75
2024/04/14 06:38:22;;;;;;;2.65;0.20;;;;;;;;;;5335158;26;20025;-75
2024/04/14 06:40:53;;;;;;;5.28;0.30;;;;;;;;;;5336577;26;20037;-75
2024/04/14 06:43:23;;;;;;;2.30;0.20;;;;;;;;;;5336034;26;20045;-75
2024/04/14 06:45:54;;;;;;;0.57;0.20;;;;;;;;;;5336211;26;20052;-75
2024/04/14 06:48:26;;;;;;;3.85;0.65;;;;;;;;;;5335396;26;20617;-75
2024/04/14 06:50:56;;;;;;;1.80;0.22;;;;;;;;;;5336000;26;20383;-75
2024/04/14 06:53:26;;;;;;;0.75;0.20;;;;;;;;;;5335562;26;20480;-75
2024/04/14 06:55:59;;;;;;;3.20;0.40;;;;;;;;;;5333882;26;20033;-75
2024/04/14 06:58:33;;;;;;;3.72;0.32;;;;;;;;;;5335315;26;20024;-75
2024/04/14 07:01:03;;;;;;;0.35;0.20;;;;;;;;;;5335674;26;20036;-75
2024/04/14 07:03:34;;;;;;;0.30;0.17;;;;;;;;;;5335215;26;20033;-75
2024/04/14 07:06:05;;;;;;;1.85;0.10;;;;;;;;;;5335654;26;20046;-75
2024/04/14 07:08:36;;;;;;;3.22;0.28;;;;;;;;;;5335274;26;20029;-75
2024/04/14 07:11:06;;;;;;;4.43;0.20;;;;;;;;;;5334917;26;20029;-75
2024/04/14 07:13:38;;;;;;;3.88;0.28;;;;;;;;;;5335245;26;20025;-75
2024/04/14 07:16:09;;;;;;;1.90;0.22;;;;;;;;;;5335193;26;20021;-75
2024/04/14 07:18:40;;;;;;;2.63;0.20;;;;;;;;;;5335313;26;20033;-76
2024/04/14 07:21:11;;;;;;;1.90;0.20;;;;;;;;;;5334733;26;20480;-75
2024/04/14 07:23:43;;;;;;;0.20;0.20;;;;;;;;;;5335107;26;20045;-76
2024/04/14 07:26:13;;;;;;;2.30;0.43;;;;;;;;;;5334330;26;21019;-75
2024/04/14 07:28:43;;;;;;;4.47;0.38;;;;;;;;;;5334837;26;20037;-75
2024/04/14 07:31:13;;;;;;;2.55;0.20;;;;;;;;;;5335356;26;20489;-75
2024/04/14 07:33:44;;;;;;;0.20;0.10;;;;;;;;;;5333791;26;20464;-75
2024/04/14 07:36:15;;;;;;;0.47;0.10;;;;;;;;;;5333733;26;20021;-76
2024/04/14 07:38:45;;;;;;;4.75;0.32;;;;;;;;;;5334870;26;20025;-75
2024/04/14 07:41:16;;;;;;;3.03;0.45;;;;;;;;;;5334464;26;20033;-75
2024/04/14 07:43:47;;;;;;;2.92;0.10;;;;;;;;;;5334031;26;20025;-75
2024/04/14 07:46:18;;;;;;;0.22;0.20;;;;;;;;;;5334486;26;20020;-75
2024/04/14 07:48:49;;;;;;;2.42;0.20;;;;;;;;;;5333432;26;20475;-76
2024/04/14 07:51:20;;;;;;;0.28;0.10;;;;;;;;;;5334708;26;20080;-76
2024/04/14 07:53:52;;;;;;;0.50;0.10;;;;;;;;;;5332755;26;20467;-75
2024/04/14 07:56:22;;;;;;;4.10;0.32;;;;;;;;;;5333755;26;20025;-75
2024/04/14 07:58:52;;;;;;;0.38;0.28;;;;;;;;;;5334097;26;20021;-75
2024/04/14 08:01:25;;;;;;;4.25;0.70;;;;;;;;;;5334266;26;20472;-75
2024/04/14 08:03:56;;;;;;;4.43;0.35;;;;;;;;;;5334967;26;20025;-75
2024/04/14 08:06:27;;;;;;;0.70;0.10;;;;;;;;;;5334701;26;20222;-75
2024/04/14 08:08:57;;;;;;;1.77;0.10;;;;;;;;;;5338200;26;20537;-76
2024/04/14 08:11:27;;;;;;;1.42;0.20;;;;;;;;;;5337344;26;20521;-75
2024/04/14 08:14:00;;;;;;;3.80;0.20;;;;;;;;;;5337667;26;20045;-76
2024/04/14 08:16:31;;;;;;;1.00;0.50;;;;;;;;;;5337590;26;20024;-75
2024/04/14 08:19:01;;;;;;;2.05;0.20;;;;;;;;;;5338362;26;20025;-75
2024/04/14 08:21:32;;;;;;;1.67;0.20;;;;;;;;;;5337066;26;20030;-75
2024/04/14 08:24:06;;;;;;;2.72;0.20;;;;;;;;;;5337501;26;20032;-76
2024/04/14 08:26:37;;;;;;;2.53;0.17;;;;;;;;;;5338274;26;20028;-76
2024/04/14 08:29:09;;;;;;;0.10;0.10;;;;;;;;;;5337587;26;20029;-75
2024/04/14 08:31:40;;;;;;;0.13;0.05;;;;;;;;;;5337753;26;20036;-75
2024/04/14 08:34:10;;;;;;;3.28;0.20;;;;;;;;;;5336866;26;20105;-75
2024/04/14 08:36:41;;;;;;;1.23;0.20;;;;;;;;;;5337344;26;20045;-75
2024/04/14 08:39:14;;;;;;;0.55;0.10;;;;;;;;;;5337676;26;20036;-75
2024/04/14 08:41:46;;;;;;;5.95;0.20;;;;;;;;;;5337952;26;20038;-75
2024/04/14 08:44:17;;;;;;;3.00;0.43;;;;;;;;;;5336822;26;20036;-75
2024/04/14 08:46:50;;;;;;;0.40;0.10;;;;;;;;;;5335889;26;20033;-76
2024/04/14 08:49:23;;;;;;;0.22;0.10;;;;;;;;;;5337868;26;20483;-75
2024/04/14 08:51:57;;;;;;;1.15;0.10;;;;;;;;;;5337310;26;20037;-76
2024/04/14 08:54:27;;;;;;;0.32;0.10;;;;;;;;;;5338247;26;20024;-76
2024/04/14 08:57:01;;;;;;;1.50;0.05;;;;;;;;;;5337603;26;20762;-75
2024/04/14 08:59:37;;;;;;;2.53;0.10;;;;;;;;;;5337470;26;20033;-75
2024/04/14 09:02:11;;;;;;;;;;;;;;;;;;5337838;26;20025;-75
2024/04/14 09:04:42;;;;;;;1.25;0.25;;;;;;;;;;5337197;26;19973;-75
2024/04/14 09:07:14;;;;;;;0.20;0.10;;;;;;;;;;5337735;26;20468;-75
2024/04/14 09:09:49;;;;;;;0.10;0.10;;;;;;;;;;5337481;26;19997;-76
2024/04/14 09:12:19;;;;;;;6.38;0.20;;;;;;;;;;5336615;26;20025;-75
2024/04/14 09:14:50;;;;;;;0.77;0.20;;;;;;;;;;5336793;26;20476;-75
2024/04/14 09:17:20;;;;;;;0.30;0.10;;;;;;;;;;5335660;26;20025;-75
2024/04/14 09:19:51;;;;;;;3.72;0.50;;;;;;;;;;5335347;26;20468;-76
2024/04/14 09:22:22;;;;;;;0.05;0.03;;;;;;;;;;5337053;26;20021;-76
2024/04/14 09:24:52;;;;;;;3.10;0.20;;;;;;;;;;5336391;26;20021;-75
2024/04/14 09:27:24;;;;;;;1.13;0.20;;;;;;;;;;5336798;26;20021;-76
2024/04/14 09:30:02;;;;;;;0.00;0.00;;;;;;;;;;5336827;26;20025;-76
2024/04/14 09:32:32;;;;;;;0.73;0.47;;;;;;;;;;5337359;26;20029;-76
2024/04/14 09:35:03;;;;;;;2.75;0.15;;;;;;;;;;5335345;26;20032;-76
2024/04/14 09:37:33;;;;;;;0.20;0.10;;;;;;;;;;5335960;26;20025;-76
2024/04/14 09:40:09;;;;;;;2.90;0.10;;;;;;;;;;5336342;26;20041;-76
2024/04/14 09:42:42;;;;;;;0.65;0.17;;;;;;;;;;5336486;26;20052;-75
2024/04/14 09:45:15;;;;;;;3.92;0.38;;;;;;;;;;5336471;26;20037;-75
2024/04/14 09:47:47;;;;;;;0.20;0.00;;;;;;;;;;5337660;26;20029;-76
2024/04/14 09:50:21;;;;;;;0.03;0.03;;;;;;;;;;5337209;26;20029;-76
2024/04/14 09:52:53;;;;;;;2.47;0.20;;;;;;;;;;5335193;26;20804;-76
2024/04/14 09:55:26;;;;;;;0.98;0.20;;;;;;;;;;5335887;26;20032;-75
2024/04/14 09:57:56;;;;;;;3.13;0.17;;;;;;;;;;5336545;26;20045;-76
2024/04/14 10:00:28;;;;;;;0.10;0.05;;;;;;;;;;5336695;26;20033;-74
2024/04/14 10:03:03;;;;;;;4.28;0.20;;;;;;;;;;5336263;26;20465;-75
2024/04/14 10:05:34;;;;;;;1.38;0.10;;;;;;;;;;5336303;26;20029;-76
2024/04/14 10:08:06;;;;;;;0.30;0.10;;;;;;;;;;5336152;26;20398;-76
2024/04/14 10:10:37;;;;;;;0.98;0.10;;;;;;;;;;5336154;26;20021;-75
2024/04/14 10:13:08;;;;;;;0.10;0.10;;;;;;;;;;5336144;26;20034;-76
2024/04/14 10:15:54;;;;;;;7.45;0.28;;;;;;;;;;5335705;26;20048;-76
2024/04/14 10:18:33;;;;;;;4.22;0.20;;;;;;;;;;5336252;26;20362;-75
2024/04/14 10:21:05;;;;;;;5.03;0.30;;;;;;;;;;5336599;26;20851;-76
2024/04/14 10:23:45;;;;;;;4.57;0.30;;;;;;;;;;5335192;26;20003;-76
2024/04/14 10:26:19;;;;;;;1.85;0.60;;;;;;;;;;5335640;26;20029;-75
2024/04/14 10:28:55;;;;;;;1.55;0.15;;;;;;;;;;5335957;26;20028;-75
2024/04/14 10:31:31;;;;;;;1.38;0.77;;;;;;;;;;5336896;26;20032;-75
2024/04/14 10:34:05;;;;;;;1.98;0.17;;;;;;;;;;5336006;26;20013;-76
2024/04/14 10:36:40;;;;;;;0.22;0.10;;;;;;;;;;5336209;26;20025;-75
2024/04/14 10:39:18;;;;;;;7.95;0.22;;;;;;;;;;5335510;26;20483;-75
2024/04/14 10:41:49;;;;;;;6.80;0.60;;;;;;;;;;5334506;26;20479;-84
2024/04/14 10:44:23;;;;;;;0.22;0.10;;;;;;;;;;5335576;26;19997;-76
2024/04/14 10:46:54;;;;;;;1.15;0.10;;;;;;;;;;5335675;26;20025;-76
2024/04/14 10:49:28;;;;;;;1.13;0.20;;;;;;;;;;5335554;26;20025;-76
2024/04/14 10:51:59;;;;;;;5.38;0.20;;;;;;;;;;5335414;26;20021;-76
2024/04/14 10:54:30;;;;;;;0.17;0.10;;;;;;;;;;5335806;26;20049;-75
2024/04/14 10:57:00;;;;;;;2.72;0.47;;;;;;;;;;5335462;26;20024;-76
2024/04/14 10:59:30;;;;;;;3.50;0.22;;;;;;;;;;5335302;26;20036;-76
2024/04/14 11:02:04;;;;;;;3.30;0.20;;;;;;;;;;5335264;26;20021;-78
2024/04/14 11:04:35;;;;;;;2.83;0.20;;;;;;;;;;5335632;26;20480;-76
2024/04/14 11:07:06;;;;;;;5.45;0.22;;;;;;;;;;5335734;26;20365;-76
2024/04/14 11:09:37;;;;;;;1.98;0.10;;;;;;;;;;5335865;26;20037;-77
2024/04/14 11:12:08;;;;;;;0.10;0.10;;;;;;;;;;5336006;26;20025;-76
2024/04/14 11:14:38;;;;;;;2.58;0.22;;;;;;;;;;5334421;26;20345;-77
2024/04/14 11:17:13;;;;;;;2.05;0.10;;;;;;;;;;5334699;26;20052;-77
2024/04/14 11:19:46;;;;;;;2.38;0.30;;;;;;;;;;5334934;26;20025;-80
2024/04/14 11:22:18;;;;;;;2.00;0.10;;;;;;;;;;5335460;26;20032;-78
2024/04/14 11:24:52;;;;;;;2.53;0.20;;;;;;;;;;5364672;26;20514;-77
2024/04/14 11:27:22;;;;;;;0.40;0.13;;;;;;;;;;5404767;26;20019;-76
2024/04/14 11:29:54;;;;;;;0.82;0.10;;;;;;;;;;5404574;26;20023;-76
2024/04/14 11:32:32;;;;;;;0.10;0.08;;;;;;;;;;5404800;26;20028;-76
2024/04/14 11:35:08;;;;;;;0.40;0.40;;;;;;;;;;5381245;26;20032;-76
2024/04/14 11:37:44;;;;;;;1.75;0.55;;;;;;;;;;5369625;26;20038;-76
2024/04/14 11:40:17;;;;;;;0.00;0.00;;;;;;;;;;5369604;26;20024;-77
2024/04/14 11:42:48;;;;;;;0.20;0.10;;;;;;;;;;5371708;26;20029;-77
2024/04/14 11:45:19;;;;;;;1.08;0.17;;;;;;;;;;5373011;26;20022;-76
2024/04/14 11:47:49;;;;;;;0.20;0.10;;;;;;;;;;5372787;26;20552;-76
2024/04/14 11:50:20;;;;;;;0.03;0.03;;;;;;;;;;5372720;26;20021;-76
2024/04/14 11:52:51;;;;;;;0.28;0.10;;;;;;;;;;5373763;26;21022;-76
2024/04/14 11:55:23;;;;;;;1.90;0.22;;;;;;;;;;5373925;26;20028;-76
2024/04/14 11:57:55;;;;;;;0.03;0.03;;;;;;;;;;5373217;26;20040;-77
2024/04/14 12:00:26;;;;;;;2.42;0.20;;;;;;;;;;5400296;26;20024;-78
2024/04/14 12:02:56;;;;;;;1.52;0.20;;;;;;;;;;5371972;26;20020;-76
2024/04/14 12:05:27;;;;;;;0.10;0.05;;;;;;;;;;5372552;26;20024;-77
2024/04/14 12:07:58;;;;;;;2.90;0.10;;;;;;;;;;5371920;26;20628;-77
2024/04/14 12:10:29;;;;;;;1.40;0.15;;;;;;;;;;5372537;26;20377;-77
2024/04/14 12:12:59;;;;;;;0.10;0.10;;;;;;;;;;5372490;26;20020;-76
2024/04/14 12:15:29;;;;;;;0.43;0.10;;;;;;;;;;5371687;26;20471;-76
2024/04/14 12:18:01;;;;;;;1.75;0.20;;;;;;;;;;5371679;26;20028;-76
2024/04/14 12:20:31;;;;;;;0.35;0.08;;;;;;;;;;5371856;26;19996;-77
2024/04/14 12:23:02;;;;;;;1.00;0.10;;;;;;;;;;5372209;26;20802;-76
2024/04/14 12:25:34;;;;;;;0.10;0.10;;;;;;;;;;5372613;26;19996;-76
2024/04/14 12:28:04;;;;;;;0.30;0.20;;;;;;;;;;5373280;26;20756;-79
2024/04/14 12:30:36;;;;;;;0.70;0.15;;;;;;;;;;5372787;26;20022;-77
2024/04/14 12:33:18;;;;;;;1.10;0.10;;;;;;;;;;5372341;26;20043;-78
2024/04/14 12:35:48;;;;;;;0.00;0.00;;;;;;;;;;5372445;26;20025;-77
2024/04/14 12:38:18;;;;;;;1.23;0.10;;;;;;;;;;5371992;26;20028;-77
2024/04/14 12:40:50;;;;;;;5.93;0.20;;;;;;;;;;5371212;26;20032;-77
2024/04/14 12:43:21;;;;;;;0.60;0.20;;;;;;;;;;5372209;26;20016;-77
2024/04/14 12:45:53;;;;;;;0.10;0.10;;;;;;;;;;5372120;26;20027;-77
2024/04/14 12:48:24;;;;;;;1.45;0.10;;;;;;;;;;5371400;26;20024;-77
2024/04/14 12:50:54;;;;;;;0.10;0.00;;;;;;;;;;5371985;26;20386;-77
2024/04/14 12:53:25;;;;;;;2.42;0.10;;;;;;;;;;5371587;26;20020;-76
2024/04/14 12:55:56;;;;;;;4.47;0.20;;;;;;;;;;5371496;26;20024;-77
2024/04/14 12:58:27;;;;;;;0.03;0.03;;;;;;;;;;5372117;26;20032;-77
2024/04/14 13:00:57;;;;;;;2.08;0.10;;;;;;;;;;5372560;26;20024;-79
2024/04/14 13:03:29;;;;;;;0.90;0.15;;;;;;;;;;5371312;26;20467;-78
2024/04/14 13:06:01;;;;;;;0.57;0.10;;;;;;;;;;5371696;26;19992;-76
2024/04/14 13:08:31;;;;;;;1.48;0.10;;;;;;;;;;5371978;26;20644;-76
2024/04/14 13:11:02;;;;;;;0.43;0.10;;;;;;;;;;5371904;26;20468;-77
2024/04/14 13:13:33;;;;;;;0.10;0.10;;;;;;;;;;5370694;26;20021;-77
2024/04/14 13:16:04;;;;;;;1.65;0.13;;;;;;;;;;5372762;26;20027;-77
2024/04/14 13:18:35;;;;;;;1.27;0.15;;;;;;;;;;5372152;26;20533;-78
2024/04/14 13:21:05;;;;;;;0.03;0.00;;;;;;;;;;5372316;26;20476;-77
2024/04/14 13:23:36;;;;;;;0.28;0.00;;;;;;;;;;5371583;26;20018;-81
2024/04/14 13:26:10;;;;;;;0.25;0.10;;;;;;;;;;5371723;26;19996;-78
2024/04/14 13:28:43;;;;;;;0.25;0.25;;;;;;;;;;5371014;26;20028;-77
2024/04/14 13:31:13;;;;;;;1.27;0.10;;;;;;;;;;5371961;26;20031;-76
2024/04/14 13:33:44;;;;;;;2.65;0.10;;;;;;;;;;5372164;26;20020;-77
2024/04/14 13:36:15;;;;;;;1.08;0.20;;;;;;;;;;5371406;26;20032;-77
2024/04/14 13:38:46;;;;;;;0.00;0.00;;;;;;;;;;5372080;26;20024;-77
2024/04/14 13:41:17;;;;;;;0.05;0.05;;;;;;;;;;5371890;26;20474;-83
2024/04/14 13:43:50;;;;;;;1.08;0.10;;;;;;;;;;5371414;26;20471;-77
2024/04/14 13:46:24;;;;;;;0.10;0.03;;;;;;;;;;5371453;26;20043;-77
2024/04/14 13:48:54;;;;;;;0.73;0.35;;;;;;;;;;5371253;26;20024;-76
2024/04/14 13:51:24;;;;;;;2.80;0.10;;;;;;;;;;5371247;26;20023;-77
2024/04/14 13:53:55;;;;;;;0.40;0.10;;;;;;;;;;5371347;26;20028;-76
2024/04/14 13:56:25;;;;;;;1.08;0.10;;;;;;;;;;5370941;26;20020;-76
2024/04/14 13:58:56;;;;;;;0.65;0.47;;;;;;;;;;5371719;26;20483;-78
2024/04/14 14:01:27;;;;;;;0.40;0.40;;;;;;;;;;5371490;26;20044;-76
2024/04/14 14:03:58;;;;;;;0.22;0.10;;;;;;;;;;5398135;26;20474;-77
2024/04/14 14:06:29;;;;;;;0.35;0.28;;;;;;;;;;5371061;26;20032;-77
2024/04/14 14:09:00;;;;;;;1.33;0.30;;;;;;;;;;5369654;26;20356;-76
2024/04/14 14:11:31;;;;;;;1.17;0.50;;;;;;;;;;5371355;26;20020;-76
2024/04/14 14:14:01;;;;;;;0.60;0.20;;;;;;;;;;5371141;26;20032;-76
2024/04/14 14:16:35;;;;;;;2.70;0.30;;;;;;;;;;5370657;26;20020;-76
2024/04/14 14:19:05;;;;;;;2.45;0.30;;;;;;;;;;5371338;26;20620;-77
2024/04/14 14:21:36;;;;;;;0.10;0.00;;;;;;;;;;5370513;26;20370;-77
2024/04/14 14:24:08;;;;;;;0.38;0.20;;;;;;;;;;5370896;26;20020;-76
2024/04/14 14:26:39;;;;;;;0.50;0.30;;;;;;;;;;5370450;26;20015;-77
2024/04/14 14:29:10;;;;;;;0.25;0.15;;;;;;;;;;5370605;26;20480;-76
2024/04/14 14:31:41;;;;;;;0.43;0.20;;;;;;;;;;5371388;26;20024;-77
2024/04/14 14:37:02;;;;;;;0.28;0.20;;;;;;;;;;5371283;26;20039;-79
2024/04/14 14:39:33;;;;;;;0.40;0.40;;;;;;;;;;5370163;26;20024;-76
2024/04/14 14:42:03;;;;;;;1.98;0.35;;;;;;;;;;5371221;26;20024;-76
2024/04/14 14:44:35;;;;;;;4.95;0.52;;;;;;;;;;5370473;26;20028;-77
2024/04/14 14:47:05;;;;;;;0.85;0.30;;;;;;;;;;5369832;26;20036;-77
2024/04/14 14:49:36;;;;;;;2.35;0.57;;;;;;;;;;5370029;26;20028;-77
2024/04/14 14:52:07;;;;;;;1.23;0.70;;;;;;;;;;5370101;26;20032;-77
2024/04/14 14:54:37;;;;;;;0.52;0.40;;;;;;;;;;5369962;26;20471;-80
2024/04/14 14:57:07;;;;;;;0.85;0.30;;;;;;;;;;5370193;26;20020;-77
2024/04/14 14:59:38;;;;;;;1.67;0.30;;;;;;;;;;5369660;26;20021;-79
2024/04/14 15:02:10;;;;;;;2.17;0.40;;;;;;;;;;5369779;26;20024;-77
2024/04/14 15:04:41;;;;;;;0.43;0.20;;;;;;;;;;5397182;26;20547;-77
2024/04/14 15:07:11;;;;;;;0.57;0.40;;;;;;;;;;5369668;26;20040;-76
2024/04/14 15:09:42;;;;;;;1.83;0.55;;;;;;;;;;5368710;26;20047;-76